Time;durP1;ratioP1;P1;durP2;ratioP2;P2;SDS_P1;SDS_P2;PMS_P1;PMS_P2;Temp;Humidity;BMP_temperature;BMP_pressure;BME280_temperature;BME280_humidity;BME280_pressure;Samples;Min_cycle;Max_cycle;Signal;HPM_P1;HPM_P2
2023/12/07 00:00:02;;;;;;;28.52;20.05;;;;;;;5.10;76.89;100043.44;5013463;28;20045;-77
2023/12/07 00:02:29;;;;;;;25.70;18.25;;;;;;;5.09;77.23;100050.38;5022425;28;20045;-75
2023/12/07 00:04:56;;;;;;;26.75;19.55;;;;;;;5.08;77.03;100059.13;5030685;28;20104;-78
2023/12/07 00:07:22;;;;;;;30.63;19.80;;;;;;;5.07;77.10;100054.81;5030764;28;20054;-75
2023/12/07 00:09:49;;;;;;;28.13;19.30;;;;;;;5.07;76.91;100057.44;5030838;28;20046;-76
2023/12/07 00:12:15;;;;;;;25.67;18.50;;;;;;;5.07;77.18;100060.03;5025852;28;20163;-75
2023/12/07 00:14:42;;;;;;;26.80;17.95;;;;;;;5.07;77.40;100062.63;5027147;28;20124;-79
2023/12/07 00:17:08;;;;;;;26.85;19.00;;;;;;;5.06;77.00;100060.06;5030875;28;20073;-79
2023/12/07 00:19:35;;;;;;;29.15;19.02;;;;;;;5.06;77.12;100065.28;5030677;28;20099;-75
2023/12/07 00:22:02;;;;;;;27.10;18.52;;;;;;;5.05;77.14;100069.66;5012878;28;20060;-78
2023/12/07 00:24:29;;;;;;;27.75;19.08;;;;;;;5.05;77.13;100063.59;5010444;28;20080;-75
2023/12/07 00:26:56;;;;;;;27.50;18.35;;;;;;;5.04;77.10;100062.72;5010930;28;20529;-76
2023/12/07 00:29:22;;;;;;;25.15;17.00;;;;;;;5.03;77.07;100063.63;5010961;28;20077;-76
2023/12/07 00:31:49;;;;;;;25.58;18.90;;;;;;;5.03;77.11;100066.25;5010951;28;20042;-75
2023/12/07 00:34:17;;;;;;;26.55;17.08;;;;;;;5.02;76.95;100061.94;5010354;28;20046;-74
2023/12/07 00:36:43;;;;;;;29.05;18.65;;;;;;;5.01;76.80;100065.41;4993157;28;20501;-75
2023/12/07 00:39:10;;;;;;;27.73;18.08;;;;;;;4.99;76.73;100067.22;5010894;28;20050;-75
2023/12/07 00:41:37;;;;;;;26.58;18.77;;;;;;;4.99;76.90;100075.06;5010641;28;20804;-75
2023/12/07 00:44:05;;;;;;;27.00;17.35;;;;;;;4.97;76.95;100073.38;5010280;28;20494;-74
2023/12/07 00:46:32;;;;;;;24.30;17.70;;;;;;;4.94;76.90;100071.72;5013702;28;20129;-78
2023/12/07 00:48:59;;;;;;;27.35;18.67;;;;;;;4.93;76.71;100068.25;4996970;28;20054;-74
2023/12/07 00:51:25;;;;;;;28.15;18.55;;;;;;;4.93;76.87;100067.38;5014581;28;20114;-74
2023/12/07 00:53:52;;;;;;;24.38;17.77;;;;;;;4.92;76.63;100070.91;5014117;28;20052;-76
2023/12/07 00:56:18;;;;;;;28.67;18.98;;;;;;;4.90;76.71;100068.31;5013870;28;20541;-78
2023/12/07 00:58:45;;;;;;;25.50;17.80;;;;;;;4.88;76.81;100077.97;5014352;28;20046;-76
2023/12/07 01:01:13;;;;;;;25.00;17.13;;;;;;;4.86;76.72;100074.53;5014212;28;20077;-77
2023/12/07 01:03:40;;;;;;;22.90;16.33;;;;;;;4.85;76.99;100075.44;4996451;28;20050;-79
2023/12/07 01:06:07;;;;;;;25.80;17.67;;;;;;;4.83;77.00;100065.03;5013948;28;20104;-75
2023/12/07 01:08:34;;;;;;;28.55;17.38;;;;;;;4.82;76.79;100073.78;5014291;28;20152;-74
2023/12/07 01:11:00;;;;;;;26.30;17.65;;;;;;;4.81;77.24;100069.47;5014079;28;20438;-72
2023/12/07 01:13:27;;;;;;;24.25;16.77;;;;;;;4.80;77.19;100070.38;5013934;28;20054;-75
2023/12/07 01:15:55;;;;;;;23.15;16.75;;;;;;;4.80;77.33;100072.09;5013377;28;20526;-77
2023/12/07 01:18:22;;;;;;;24.52;16.48;;;;;;;4.81;77.22;100084.25;5013852;28;20112;-73
2023/12/07 01:20:48;;;;;;;24.00;14.90;;;;;;;4.81;77.35;100081.63;5014017;28;20054;-75
2023/12/07 01:23:15;;;;;;;24.92;15.13;;;;;;;4.83;77.50;100082.47;5013932;28;20053;-76
2023/12/07 01:25:42;;;;;;;24.58;15.63;;;;;;;4.85;77.47;100088.47;5013025;28;20085;-74
2023/12/07 01:28:09;;;;;;;21.65;15.27;;;;;;;4.87;77.45;100097.13;5013769;28;20046;-75
2023/12/07 01:30:36;;;;;;;23.48;15.48;;;;;;;4.89;77.40;100097.94;5013617;28;20107;-77
2023/12/07 01:33:03;;;;;;;24.02;15.30;;;;;;;4.91;77.08;100092.66;5013492;28;20042;-73
2023/12/07 01:35:30;;;;;;;20.45;14.80;;;;;;;4.93;77.18;100101.28;5013592;28;20054;-75
2023/12/07 01:37:56;;;;;;;23.65;16.02;;;;;;;4.93;76.86;100101.28;5013414;28;20390;-76
2023/12/07 01:40:23;;;;;;;24.00;15.80;;;;;;;4.92;76.72;100099.59;5013515;28;20054;-73
2023/12/07 01:42:51;;;;;;;23.20;14.75;;;;;;;4.91;76.65;100108.31;5013756;28;20045;-75
2023/12/07 01:45:19;;;;;;;21.60;15.10;;;;;;;4.90;76.69;100117.06;5013190;28;20081;-75
2023/12/07 01:47:47;;;;;;;23.60;15.52;;;;;;;4.89;76.75;100115.31;5012858;28;20042;-76
2023/12/07 01:50:17;;;;;;;23.25;15.38;;;;;;;4.88;76.67;100118.84;5013397;28;20149;-74
2023/12/07 01:52:47;;;;;;;21.98;15.05;;;;;;;4.86;76.58;100113.66;4996220;28;20064;-74
2023/12/07 01:55:15;;;;;;;24.27;14.70;;;;;;;4.85;76.52;100106.72;5013128;28;20073;-75
2023/12/07 01:57:44;;;;;;;21.73;14.75;;;;;;;4.85;76.66;100106.72;5011459;28;20056;-76
2023/12/07 02:00:14;;;;;;;23.73;15.02;;;;;;;4.83;76.39;100104.16;5013321;28;20044;-76
2023/12/07 02:02:43;;;;;;;21.30;14.25;;;;;;;4.83;76.54;100116.38;4995825;28;20056;-79
2023/12/07 02:05:09;;;;;;;20.50;14.10;;;;;;;4.83;76.25;100118.97;5012801;28;20046;-75
2023/12/07 02:07:36;;;;;;;21.13;15.00;;;;;;;4.80;75.95;100119.91;5012789;28;20061;-74
2023/12/07 02:10:03;;;;;;;23.92;15.07;;;;;;;4.78;75.93;100123.44;5012572;28;20060;-78
2023/12/07 02:12:30;;;;;;;25.95;14.82;;;;;;;4.74;75.74;100114.84;4995404;28;20046;-74
2023/12/07 02:14:57;;;;;;;20.45;14.48;;;;;;;4.71;75.61;100114.09;5012739;28;20045;-75
2023/12/07 02:17:31;;;;;;;23.92;15.23;;;;;;;4.64;74.92;100111.63;5012728;28;20050;-77
2023/12/07 02:20:00;;;;;;;21.40;15.05;;;;;;;4.61;75.25;100111.72;5012522;28;20049;-76
2023/12/07 02:22:41;;;;;;;22.10;14.98;;;;;;;4.53;74.89;100114.53;5012632;28;20129;-75
2023/12/07 02:25:10;;;;;;;23.98;14.40;;;;;;;4.53;75.09;100118.91;5012944;28;20053;-75
2023/12/07 02:27:42;;;;;;;22.67;13.95;;;;;;;4.46;75.31;100110.38;5012536;28;20050;-75
2023/12/07 02:30:11;;;;;;;20.10;14.18;;;;;;;4.41;75.52;100115.69;4992567;28;20053;-75
2023/12/07 02:32:39;;;;;;;21.20;14.27;;;;;;;4.38;75.52;100127.97;5014720;28;20049;-75
2023/12/07 02:35:07;;;;;;;20.92;14.38;;;;;;;4.34;75.46;100114.13;5031892;28;20044;-76
2023/12/07 02:37:51;;;;;;;21.67;14.63;;;;;;;4.26;75.07;100116.09;5032071;28;20132;-78
2023/12/07 02:40:23;;;;;;;17.77;13.18;;;;;;;4.26;75.33;100124.75;5003276;28;20041;-80
2023/12/07 02:42:52;;;;;;;20.35;13.50;;;;;;;4.23;75.61;100119.63;5114509;22;20057;-80
2023/12/07 02:45:19;;;;;;;19.73;13.98;;;;;;;4.20;75.89;100116.25;5031910;28;20074;-80
2023/12/07 02:47:46;;;;;;;22.75;14.52;;;;;;;4.16;75.82;100116.31;5014254;28;20103;-81
2023/12/07 02:50:13;;;;;;;21.83;13.40;;;;;;;4.14;75.83;100119.84;5014252;28;20053;-81
2023/12/07 02:52:40;;;;;;;21.85;14.70;;;;;;;4.12;76.07;100124.25;5031919;28;20418;-82
2023/12/07 02:55:07;;;;;;;22.42;14.48;;;;;;;4.09;75.82;100116.50;5014130;28;20056;-81
2023/12/07 02:57:33;;;;;;;21.25;14.30;;;;;;;4.07;76.12;100116.53;5014065;28;20128;-81
2023/12/07 03:00:01;;;;;;;18.98;12.93;;;;;;;4.06;75.90;100111.34;5031528;28;20144;-81
2023/12/07 03:02:27;;;;;;;24.23;14.02;;;;;;;4.03;76.23;100118.38;5031507;28;20045;-80
2023/12/07 03:04:54;;;;;;;21.80;14.52;;;;;;;4.02;75.82;100119.28;5031644;28;20141;-81
2023/12/07 03:07:20;;;;;;;19.83;14.18;;;;;;;4.01;76.23;100122.75;5031558;28;20140;-81
2023/12/07 03:09:47;;;;;;;21.33;14.55;;;;;;;4.01;76.21;100124.50;5031390;28;20045;-81
2023/12/07 03:12:14;;;;;;;22.88;14.32;;;;;;;4.00;76.52;100126.25;5031443;28;20056;-81
2023/12/07 03:14:41;;;;;;;20.85;14.13;;;;;;;3.99;76.61;100119.34;5013495;28;20140;-81
2023/12/07 03:17:08;;;;;;;25.27;13.73;;;;;;;4.00;76.62;100120.19;5031300;28;20046;-81
2023/12/07 03:22:08;;;;;;;17.73;13.02;;;;;;;4.00;76.77;100117.59;5090843;22;20394;-73
2023/12/07 03:24:36;;;;;;;18.48;12.95;;;;;;;4.01;76.91;100122.75;5030888;28;20050;-74
2023/12/07 03:27:03;;;;;;;20.85;13.57;;;;;;;4.03;77.11;100120.97;5030981;28;20560;-75
2023/12/07 03:29:31;;;;;;;20.67;13.35;;;;;;;4.04;77.16;100127.88;5030859;28;20053;-73
2023/12/07 03:31:58;;;;;;;21.00;13.63;;;;;;;4.06;77.12;100117.44;5030843;28;20068;-72
2023/12/07 03:34:24;;;;;;;21.42;12.77;;;;;;;4.10;77.42;100124.28;5031019;28;20050;-73
2023/12/07 03:36:51;;;;;;;19.88;13.20;;;;;;;4.12;77.35;100125.09;5030939;28;20056;-70
2023/12/07 03:39:18;;;;;;;18.55;13.43;;;;;;;4.14;77.32;100128.53;5030857;28;20045;-72
2023/12/07 03:41:45;;;;;;;20.45;14.15;;;;;;;4.18;77.32;100137.13;5030831;28;20132;-72
2023/12/07 03:44:11;;;;;;;20.70;13.18;;;;;;;4.21;77.45;100141.41;5030777;28;20045;-73
2023/12/07 03:46:38;;;;;;;18.85;13.43;;;;;;;4.23;77.34;100140.47;5030733;28;20049;-73
2023/12/07 03:49:05;;;;;;;21.58;14.07;;;;;;;4.25;77.29;100130.88;5030857;28;20145;-73
2023/12/07 03:51:32;;;;;;;20.65;13.10;;;;;;;4.27;77.02;100123.84;5030747;28;20050;-70
2023/12/07 03:53:58;;;;;;;21.25;12.95;;;;;;;4.30;77.13;100136.81;5030620;28;20049;-73
2023/12/07 03:56:26;;;;;;;19.60;12.60;;;;;;;4.33;77.11;100127.22;5030403;28;20057;-72
2023/12/07 03:58:53;;;;;;;19.42;12.13;;;;;;;4.35;77.11;100130.63;5030500;28;20045;-73
2023/12/07 04:01:28;;;;;;;21.35;12.50;;;;;;;4.34;76.17;100129.78;5030414;28;20041;-72
2023/12/07 04:03:56;;;;;;;19.50;12.38;;;;;;;4.38;77.08;100131.41;5030575;28;20057;-74
2023/12/07 04:06:23;;;;;;;20.95;12.98;;;;;;;4.41;77.02;100133.94;5030251;28;20621;-70
2023/12/07 04:08:50;;;;;;;17.48;12.18;;;;;;;4.43;77.02;100129.56;5030398;28;20438;-73
2023/12/07 04:11:17;;;;;;;18.02;11.40;;;;;;;4.47;76.70;100132.94;5029858;28;20438;-72
2023/12/07 04:13:45;;;;;;;19.02;12.90;;;;;;;4.47;76.38;100130.34;5029870;28;20091;-71
2023/12/07 04:16:12;;;;;;;19.20;13.55;;;;;;;4.50;76.87;100129.41;5029875;28;20057;-73
2023/12/07 04:18:38;;;;;;;19.30;14.23;;;;;;;4.50;76.51;100127.66;5029838;28;20045;-70
2023/12/07 04:21:05;;;;;;;18.23;13.13;;;;;;;4.51;76.76;100133.72;4978095;28;1562002;-70
2023/12/07 04:23:32;;;;;;;23.58;13.60;;;;;;;4.50;76.53;100135.47;5034542;28;20414;-72
2023/12/07 04:25:59;;;;;;;21.02;13.68;;;;;;;4.51;76.48;100131.97;5016923;28;20490;-71
2023/12/07 04:28:26;;;;;;;17.95;12.77;;;;;;;4.51;76.52;100134.56;5034824;28;20486;-73
2023/12/07 04:30:52;;;;;;;22.42;13.23;;;;;;;4.51;76.05;100134.56;5034686;28;20484;-73
2023/12/07 04:33:19;;;;;;;20.42;13.65;;;;;;;4.50;76.15;100132.88;5034625;28;20053;-71
2023/12/07 04:35:46;;;;;;;23.52;15.52;;;;;;;4.49;75.85;100136.34;5034357;28;20049;-71
2023/12/07 04:38:12;;;;;;;22.70;15.43;;;;;;;4.47;75.70;100134.69;5034323;28;20045;-72
2023/12/07 04:40:39;;;;;;;28.65;16.83;;;;;;;4.42;75.32;100127.84;5034629;28;20115;-71
2023/12/07 04:43:06;;;;;;;26.13;16.92;;;;;;;4.39;75.45;100132.28;5034499;28;20041;-73
2023/12/07 04:45:33;;;;;;;26.08;16.10;;;;;;;4.34;75.16;100128.94;5034226;28;20140;-73
2023/12/07 04:48:00;;;;;;;26.25;16.92;;;;;;;4.30;75.11;100133.38;5034280;28;20057;-72
2023/12/07 04:50:27;;;;;;;25.80;17.40;;;;;;;4.26;75.20;100135.19;5034085;28;20057;-71
2023/12/07 04:52:54;;;;;;;28.42;17.77;;;;;;;4.21;75.21;100138.78;5034067;28;20103;-72
2023/12/07 04:55:21;;;;;;;27.60;17.88;;;;;;;4.16;75.32;100142.38;5034014;28;20383;-72
2023/12/07 04:57:47;;;;;;;29.35;18.48;;;;;;;4.12;75.09;100145.09;5034070;28;20410;-72
2023/12/07 05:00:14;;;;;;;30.27;19.67;;;;;;;4.06;75.19;100138.28;5033988;28;20053;-73
2023/12/07 05:02:41;;;;;;;38.67;22.20;;;;;;;4.01;75.41;100127.97;5033946;28;20081;-71
2023/12/07 05:05:08;;;;;;;34.20;21.27;;;;;;;3.97;75.46;100144.56;5033713;28;20045;-72
2023/12/07 05:07:35;;;;;;;34.47;21.60;;;;;;;3.93;75.42;100145.53;5034107;28;20097;-69
2023/12/07 05:10:02;;;;;;;37.85;21.95;;;;;;;3.89;75.88;100144.72;5016318;28;20054;-71
2023/12/07 05:12:30;;;;;;;44.75;23.35;;;;;;;3.87;76.06;100143.94;5033833;28;20049;-73
2023/12/07 05:14:56;;;;;;;41.08;22.77;;;;;;;3.84;76.13;100153.53;5033493;28;20046;-72
2023/12/07 05:17:23;;;;;;;36.55;22.17;;;;;;;3.82;75.99;100147.53;5033649;28;20041;-72
2023/12/07 05:19:49;;;;;;;38.83;23.60;;;;;;;3.79;76.66;100143.25;5033647;28;20453;-73
2023/12/07 05:22:16;;;;;;;39.38;23.35;;;;;;;3.77;76.75;100145.00;5033841;28;20049;-72
2023/12/07 05:24:42;;;;;;;47.65;26.20;;;;;;;3.75;76.30;100150.28;5033505;28;20049;-72
2023/12/07 05:27:09;;;;;;;45.45;26.08;;;;;;;3.74;76.46;100164.16;5015898;28;20494;-74
2023/12/07 05:29:35;;;;;;;47.13;26.60;;;;;;;3.72;76.48;100168.56;5015838;28;20087;-72
2023/12/07 05:32:05;;;;;;;45.55;26.77;;;;;;;3.71;76.55;100164.25;5032994;28;20136;-72
2023/12/07 05:34:33;;;;;;;43.10;25.83;;;;;;;3.69;76.79;100162.53;5032997;28;20556;-71
2023/12/07 05:37:00;;;;;;;45.85;26.77;;;;;;;3.70;76.66;100164.28;5033561;28;20049;-73
2023/12/07 05:39:26;;;;;;;42.60;26.60;;;;;;;3.68;76.62;100161.72;5033285;28;20053;-73
2023/12/07 05:41:53;;;;;;;41.40;25.42;;;;;;;3.68;76.78;100163.44;5033246;28;20080;-71
2023/12/07 05:44:22;;;;;;;40.28;25.42;;;;;;;3.68;77.31;100161.72;5033047;28;20617;-71
2023/12/07 05:46:49;;;;;;;42.05;23.95;;;;;;;3.69;77.29;100150.41;5032832;28;20782;-71
2023/12/07 05:49:16;;;;;;;36.33;23.23;;;;;;;3.70;77.64;100154.72;5015415;28;20100;-73
2023/12/07 05:51:43;;;;;;;33.00;22.27;;;;;;;3.73;77.53;100148.56;5032925;28;20049;-69
2023/12/07 05:54:10;;;;;;;36.65;22.95;;;;;;;3.74;77.47;100148.53;5033006;28;20049;-72
2023/12/07 05:56:36;;;;;;;35.97;22.60;;;;;;;3.77;77.63;100145.88;5015223;28;20107;-72
2023/12/07 05:59:03;;;;;;;35.78;22.92;;;;;;;3.80;77.37;100151.88;5032801;28;20506;-72
2023/12/07 06:01:30;;;;;;;35.67;21.70;;;;;;;3.82;77.06;100147.53;5032693;28;20099;-70
2023/12/07 06:03:57;;;;;;;34.60;22.60;;;;;;;3.83;77.30;100144.03;5032995;28;20131;-73
2023/12/07 06:06:23;;;;;;;36.05;22.60;;;;;;;3.84;76.87;100148.31;5032461;28;20103;-72
2023/12/07 06:08:50;;;;;;;34.10;22.80;;;;;;;3.83;76.66;100144.88;5032653;28;20076;-73
2023/12/07 06:11:17;;;;;;;36.78;23.58;;;;;;;3.84;76.80;100145.72;5032614;28;20050;-72
2023/12/07 06:13:43;;;;;;;37.75;23.35;;;;;;;3.83;76.87;100149.22;5032622;28;20502;-71
2023/12/07 06:16:14;;;;;;;39.72;24.75;;;;;;;3.81;76.53;100151.03;5032140;28;20049;-69
2023/12/07 06:18:41;;;;;;;42.70;25.50;;;;;;;3.81;76.71;100158.84;5032471;28;20486;-71
2023/12/07 06:21:08;;;;;;;40.50;25.50;;;;;;;3.80;77.00;100168.38;5032319;28;20083;-73
2023/12/07 06:23:35;;;;;;;45.63;26.70;;;;;;;3.76;76.56;100157.19;5032391;28;20123;-70
2023/12/07 06:26:02;;;;;;;47.05;28.23;;;;;;;3.75;76.96;100165.03;5032094;28;20080;-73
2023/12/07 06:28:29;;;;;;;51.47;27.67;;;;;;;3.73;76.80;100167.66;5032243;28;20540;-72
2023/12/07 06:30:57;;;;;;;63.22;28.40;;;;;;;3.73;76.84;100174.59;5032111;28;20134;-73
2023/12/07 06:33:23;;;;;;;116.72;31.08;;;;;;;3.72;76.55;100167.69;5032371;28;20057;-73
2023/12/07 06:35:50;;;;;;;242.63;34.42;;;;;;;3.70;76.47;100174.69;5031972;28;20049;-72
2023/12/07 06:38:17;;;;;;;185.85;32.30;;;;;;;3.69;76.87;100166.03;5032109;28;20521;-71
2023/12/07 06:40:47;;;;;;;184.35;31.85;;;;;;;3.67;76.98;100166.94;5014818;28;20057;-70
2023/12/07 06:43:14;;;;;;;159.20;30.88;;;;;;;3.68;76.96;100172.13;5013588;28;20625;-72
2023/12/07 06:45:40;;;;;;;197.05;29.65;;;;;;;3.67;77.13;100180.84;5031991;28;20053;-71
2023/12/07 06:48:07;;;;;;;250.45;35.20;;;;;;;3.69;77.13;100184.25;5032107;28;20241;-72
2023/12/07 06:50:34;;;;;;;207.15;30.30;;;;;;;3.70;77.13;100183.34;5031859;28;20050;-72
2023/12/07 06:53:00;;;;;;;228.98;32.08;;;;;;;3.69;77.22;100181.63;5014356;28;20068;-73
2023/12/07 06:55:27;;;;;;;342.05;36.00;;;;;;;3.69;76.96;100173.81;5031438;28;20100;-72
2023/12/07 06:57:54;;;;;;;251.45;34.20;;;;;;;3.69;76.73;100178.16;5031701;28;20236;-71
2023/12/07 07:00:21;;;;;;;283.30;33.85;;;;;;;3.66;76.79;100181.69;5031838;28;20107;-72
2023/12/07 07:02:48;;;;;;;241.88;31.17;;;;;;;3.63;76.76;100185.22;5014160;28;20085;-70
2023/12/07 07:05:14;;;;;;;200.63;29.55;;;;;;;3.60;76.67;100172.28;5031370;28;20046;-72
2023/12/07 07:07:41;;;;;;;262.23;31.10;;;;;;;3.59;76.88;100182.75;5031648;28;20050;-72
2023/12/07 07:10:12;;;;;;;408.17;38.58;;;;;;;3.56;76.65;100182.78;5031433;28;20041;-73
2023/12/07 07:12:39;;;;;;;401.45;36.60;;;;;;;3.54;76.80;100187.19;5031474;28;20083;-71
2023/12/07 07:15:08;;;;;;;382.90;40.45;;;;;;;3.50;76.71;100188.97;5031372;28;20045;-74
2023/12/07 07:17:35;;;;;;;402.63;35.08;;;;;;;3.47;76.71;100187.31;5031494;28;20057;-73
2023/12/07 07:20:01;;;;;;;469.33;43.45;;;;;;;3.42;77.08;100186.53;5031410;28;20155;-73
2023/12/07 07:22:28;;;;;;;243.73;32.40;;;;;;;3.39;76.56;100186.59;5031341;28;20132;-73
2023/12/07 07:24:54;;;;;;;180.30;27.35;;;;;;;3.36;77.07;100186.66;5031097;28;20053;-73
2023/12/07 07:27:21;;;;;;;142.77;25.30;;;;;;;3.35;77.37;100196.22;5031160;28;20085;-75
2023/12/07 07:29:48;;;;;;;388.83;37.85;;;;;;;3.33;77.41;100186.72;5031018;28;20482;-73
2023/12/07 07:32:15;;;;;;;283.50;32.03;;;;;;;3.33;77.74;100190.16;5031076;28;20498;-73
2023/12/07 07:34:42;;;;;;;301.90;33.55;;;;;;;3.32;77.19;100190.22;5013375;28;20099;-73
2023/12/07 07:37:09;;;;;;;234.82;29.90;;;;;;;3.31;77.34;100191.97;5031075;28;20502;-74
2023/12/07 07:39:36;;;;;;;452.88;37.42;;;;;;;3.30;77.15;100189.38;5031452;28;20050;-74
2023/12/07 07:42:02;;;;;;;286.92;30.73;;;;;;;3.29;77.04;100185.91;5030950;28;20057;-73
2023/12/07 07:44:29;;;;;;;228.30;27.95;;;;;;;3.26;77.33;100179.03;5030932;28;20170;-73
2023/12/07 07:46:56;;;;;;;327.58;32.95;;;;;;;3.24;76.92;100191.22;5030871;28;20506;-74
2023/12/07 07:49:23;;;;;;;318.50;33.80;;;;;;;3.20;76.69;100192.19;5013287;28;20148;-74
2023/12/07 07:51:51;;;;;;;277.33;30.13;;;;;;;3.17;77.10;100192.22;5030929;28;20053;-73
2023/12/07 07:54:17;;;;;;;390.77;33.17;;;;;;;3.13;77.10;100201.84;5030729;28;20107;-74
2023/12/07 07:56:44;;;;;;;353.33;30.83;;;;;;;3.10;77.21;100188.88;5030744;28;20049;-74
2023/12/07 07:59:11;;;;;;;331.95;31.95;;;;;;;3.07;77.32;100194.13;5030761;28;20089;-73
2023/12/07 08:01:37;;;;;;;350.90;32.40;;;;;;;3.05;76.87;100198.53;5030673;28;20449;-75
2023/12/07 08:04:04;;;;;;;352.00;30.95;;;;;;;3.03;77.05;100196.84;5030905;28;20128;-73
2023/12/07 08:06:31;;;;;;;281.42;27.67;;;;;;;3.00;76.93;100206.41;5030389;28;20510;-75
2023/12/07 08:09:02;;;;;;;201.43;25.60;;;;;;;2.97;77.52;100203.88;5030935;28;20410;-74
2023/12/07 08:11:29;;;;;;;254.07;26.70;;;;;;;2.94;77.30;100201.31;5030773;28;20144;-74
2023/12/07 08:13:55;;;;;;;237.90;26.92;;;;;;;2.92;77.65;100200.47;5030695;28;20052;-74
2023/12/07 08:16:22;;;;;;;210.00;26.83;;;;;;;2.89;77.04;100207.50;5012752;28;20046;-74
2023/12/07 08:18:48;;;;;;;209.48;23.83;;;;;;;2.87;77.15;100199.72;5030587;28;20052;-73
2023/12/07 08:21:23;;;;;;;106.32;20.13;;;;;;;2.81;77.39;100207.63;5030494;28;20441;-73
2023/12/07 08:23:56;;;;;;;120.00;20.50;;;;;;;2.83;77.52;100198.03;5030770;28;20053;-73
2023/12/07 08:26:22;;;;;;;214.55;24.73;;;;;;;2.79;77.79;100202.47;5030519;28;20141;-74
2023/12/07 08:28:50;;;;;;;141.63;23.17;;;;;;;2.76;77.08;100194.69;5030508;28;20045;-73
2023/12/07 08:31:17;;;;;;;132.00;20.98;;;;;;;2.76;77.87;100201.66;5030446;28;20079;-75
2023/12/07 08:33:44;;;;;;;152.30;21.70;;;;;;;2.73;77.61;100203.41;5030425;28;20140;-73
2023/12/07 08:36:10;;;;;;;220.25;24.33;;;;;;;2.71;77.81;100205.19;5030410;28;20160;-74
2023/12/07 08:38:37;;;;;;;182.50;25.05;;;;;;;2.69;77.44;100206.94;5030389;28;20502;-74
2023/12/07 08:41:04;;;;;;;205.48;26.40;;;;;;;2.69;77.54;100201.75;5012783;28;20478;-74
2023/12/07 08:43:30;;;;;;;173.00;23.70;;;;;;;2.68;77.92;100210.44;5030378;28;20127;-75
2023/12/07 08:45:57;;;;;;;188.38;24.48;;;;;;;2.67;78.25;100202.66;5012651;28;20073;-75
2023/12/07 08:48:27;;;;;;;321.20;29.98;;;;;;;2.65;78.26;100205.28;5030652;28;20061;-74
2023/12/07 08:50:54;;;;;;;315.83;31.80;;;;;;;2.65;78.22;100220.88;5030204;28;20136;-73
2023/12/07 08:53:21;;;;;;;279.33;30.10;;;;;;;2.65;78.13;100217.44;5030280;28;20053;-75
2023/12/07 08:55:47;;;;;;;362.98;34.33;;;;;;;2.64;78.37;100215.69;5030060;28;20049;-74
2023/12/07 08:58:14;;;;;;;339.63;30.50;;;;;;;2.65;78.48;100215.69;5030263;28;20050;-75
2023/12/07 09:00:41;;;;;;;389.77;33.03;;;;;;;2.63;78.64;100224.38;5030120;28;20379;-74
2023/12/07 09:03:07;;;;;;;318.48;30.85;;;;;;;2.63;78.10;100221.78;5030140;28;20092;-74
2023/12/07 09:05:34;;;;;;;323.65;28.67;;;;;;;2.63;78.38;100217.47;5030272;28;20049;-73
2023/12/07 09:08:01;;;;;;;275.83;25.88;;;;;;;2.62;78.50;100223.56;5033780;28;20483;-75
2023/12/07 09:10:27;;;;;;;330.08;29.15;;;;;;;2.61;78.08;100216.63;5033733;28;20111;-75
2023/12/07 09:12:54;;;;;;;209.00;26.90;;;;;;;2.59;77.91;100221.00;5033767;28;20045;-74
2023/12/07 09:15:21;;;;;;;159.20;20.77;;;;;;;2.58;78.20;100225.31;5033186;28;20056;-74
2023/12/07 09:17:51;;;;;;;96.80;18.58;;;;;;;2.56;77.78;100221.03;5033664;28;20076;-75
2023/12/07 09:22:46;;;;;;;142.13;17.77;;;;;;;2.54;78.16;100230.63;5148113;22;20049;-74
2023/12/07 09:25:15;;;;;;;142.65;18.90;;;;;;;2.52;77.75;100220.25;5033966;28;20061;-75
2023/12/07 09:27:42;;;;;;;105.90;18.80;;;;;;;2.54;78.18;100222.81;5029966;28;20045;-79
2023/12/07 09:30:13;;;;;;;118.07;17.65;;;;;;;2.54;78.98;100230.63;5024890;28;20065;-72
2023/12/07 09:32:42;;;;;;;120.32;18.95;;;;;;;2.58;78.84;100224.47;5014389;28;20042;-72
2023/12/07 09:35:20;;;;;;;103.13;18.10;;;;;;;2.60;79.22;100222.69;5013871;28;20479;-74
2023/12/07 09:37:49;;;;;;;121.32;18.98;;;;;;;2.64;79.40;100229.56;5015372;28;20487;-74
2023/12/07 09:40:19;;;;;;;107.90;19.58;;;;;;;2.67;79.32;100232.13;5030304;28;20136;-75
2023/12/07 09:42:48;;;;;;;107.10;18.77;;;;;;;2.72;79.42;100232.03;4998564;28;20060;-74
2023/12/07 09:45:19;;;;;;;139.57;20.40;;;;;;;2.77;79.34;100231.97;5013713;28;20451;-76
2023/12/07 09:47:51;;;;;;;139.77;20.08;;;;;;;2.79;79.48;100228.44;4996746;28;20052;-73
2023/12/07 09:50:22;;;;;;;177.63;21.88;;;;;;;2.84;79.05;100224.03;5028608;28;20049;-73
2023/12/07 09:52:56;;;;;;;96.35;18.98;;;;;;;2.88;79.10;100230.06;5033582;28;20132;-74
2023/12/07 09:55:34;;;;;;;134.65;20.73;;;;;;;2.91;78.96;100231.75;5033481;28;20056;-73
2023/12/07 09:58:06;;;;;;;185.05;20.70;;;;;;;2.92;78.57;100239.47;5015924;28;20052;-72
2023/12/07 10:00:36;;;;;;;124.43;21.02;;;;;;;2.96;78.73;100227.31;5026243;28;20053;-75
2023/12/07 10:03:04;;;;;;;204.45;22.30;;;;;;;2.96;78.96;100230.75;5014494;28;20442;-74
2023/12/07 10:05:31;;;;;;;180.45;21.70;;;;;;;2.97;78.84;100216.88;5013292;28;20051;-76
2023/12/07 10:07:57;;;;;;;189.05;20.33;;;;;;;2.98;78.96;100209.91;5013669;28;20057;-72
2023/12/07 10:10:24;;;;;;;157.23;19.42;;;;;;;2.99;78.62;100214.25;5021523;28;20116;-72
2023/12/07 10:12:53;;;;;;;211.88;23.20;;;;;;;2.99;78.61;100214.25;5031041;28;20494;-76
2023/12/07 10:15:21;;;;;;;140.88;19.23;;;;;;;2.99;78.94;100207.28;5015067;28;20545;-76
2023/12/07 10:17:51;;;;;;;190.98;20.83;;;;;;;3.00;78.71;100202.97;5031942;28;20053;-74
2023/12/07 10:20:26;;;;;;;128.82;20.15;;;;;;;3.02;79.01;100198.56;5023987;28;20058;-71
2023/12/07 10:23:03;;;;;;;58.90;16.52;;;;;;;3.04;78.73;100195.94;5032917;28;20061;-73
2023/12/07 10:25:31;;;;;;;100.68;18.10;;;;;;;3.09;79.22;100204.50;5032804;28;20132;-73
2023/12/07 10:27:58;;;;;;;147.88;20.45;;;;;;;3.14;79.51;100200.06;5032971;28;20099;-72
2023/12/07 10:30:27;;;;;;;143.23;19.88;;;;;;;3.17;79.38;100191.38;5023883;28;20046;-74
2023/12/07 10:32:53;;;;;;;133.98;21.08;;;;;;;3.21;79.38;100193.88;5013204;28;20137;-73
2023/12/07 10:35:20;;;;;;;126.97;20.45;;;;;;;3.25;79.90;100189.47;5012779;28;20519;-74
2023/12/07 10:37:47;;;;;;;128.50;20.10;;;;;;;3.29;79.60;100185.91;5012882;28;20050;-77
2023/12/07 10:40:14;;;;;;;161.77;19.98;;;;;;;3.34;79.58;100186.72;5016412;28;20049;-75
2023/12/07 10:42:42;;;;;;;175.57;22.13;;;;;;;3.36;78.98;100171.91;5016877;28;20054;-74
2023/12/07 10:45:15;;;;;;;133.57;21.35;;;;;;;3.39;79.12;100176.19;5012962;28;20081;-73
2023/12/07 10:47:44;;;;;;;87.07;17.98;;;;;;;3.43;79.26;100177.00;5012967;28;20042;-71
2023/12/07 10:50:16;;;;;;;177.48;20.83;;;;;;;3.45;78.85;100176.06;5012577;28;20046;-75
2023/12/07 10:52:55;;;;;;;97.20;21.58;;;;;;;3.46;78.47;100166.50;5019675;28;20095;-76
2023/12/07 10:55:28;;;;;;;190.48;24.23;;;;;;;3.47;78.21;100163.88;4994809;28;20046;-74
2023/12/07 10:57:56;;;;;;;157.38;23.05;;;;;;;3.52;78.74;100163.78;5012667;28;20050;-73
2023/12/07 11:00:28;;;;;;;95.65;20.40;;;;;;;3.52;78.66;100163.78;5012665;28;20092;-74
2023/12/07 11:03:10;;;;;;;116.43;20.48;;;;;;;3.54;78.66;100155.97;5032210;28;20565;-72
2023/12/07 11:05:38;;;;;;;74.00;18.67;;;;;;;3.54;78.51;100153.34;5031902;28;20049;-76
2023/12/07 11:08:09;;;;;;;142.90;22.80;;;;;;;3.52;78.66;100149.00;5032384;28;20053;-73
2023/12/07 11:10:45;;;;;;;98.35;20.30;;;;;;;3.55;78.68;100144.66;5014623;28;20088;-74
2023/12/07 11:13:33;;;;;;;110.68;19.75;;;;;;;3.58;78.87;100142.81;5016528;28;20092;-75
2023/12/07 11:16:01;;;;;;;100.45;21.60;;;;;;;3.65;79.22;100140.94;5011996;28;20049;-77
2023/12/07 11:18:28;;;;;;;122.65;20.33;;;;;;;3.67;78.97;100133.09;5012189;28;20525;-74
2023/12/07 11:20:56;;;;;;;181.65;24.38;;;;;;;3.68;78.78;100140.88;5012051;28;20053;-74